createdAt,value
2019-01-24T00:00:39.895Z,60.2
2019-01-24T00:01:29.674Z,60.1
2019-01-24T00:02:20.015Z,60.1
2019-01-24T00:03:09.797Z,60.1
2019-01-24T00:03:59.857Z,60
2019-01-24T00:04:50.172Z,60
2019-01-24T00:05:40.247Z,59.9
2019-01-24T00:06:30.284Z,59.9
2019-01-24T00:07:19.806Z,59.9
2019-01-24T00:08:10.129Z,59.9
2019-01-24T00:08:59.947Z,59.9
2019-01-24T00:09:50.537Z,59.8
2019-01-24T00:10:40.587Z,59.8
2019-01-24T00:11:30.369Z,59.8
2019-01-24T00:12:20.699Z,59.8
2019-01-24T00:13:10.494Z,59.7
2019-01-24T00:14:00.817Z,59.7
2019-01-24T00:14:50.880Z,59.7
2019-01-24T00:15:40.656Z,59.6
2019-01-24T00:16:30.450Z,59.6
2019-01-24T00:17:21.054Z,59.6
2019-01-24T00:18:11.082Z,59.6
2019-01-24T00:19:01.168Z,59.5
2019-01-24T00:19:51.240Z,59.5
2019-01-24T00:20:41.033Z,59.4
2019-01-24T00:21:31.064Z,59.4
2019-01-24T00:22:21.131Z,59.4
2019-01-24T00:23:11.180Z,59.4
2019-01-24T00:24:01.483Z,59.3
2019-01-24T00:24:51.004Z,59.3
2019-01-24T00:25:41.658Z,59.3
2019-01-24T00:26:30.563Z,59.3
2019-01-24T00:27:21.481Z,59.3
2019-01-24T00:28:11.788Z,59.2
2019-01-24T00:29:01.845Z,59.2
2019-01-24T00:29:51.886Z,59.2
2019-01-24T00:30:41.951Z,59.1
2019-01-24T00:31:32.022Z,59.1
2019-01-24T00:32:21.810Z,59.1
2019-01-24T00:33:11.862Z,59.1
2019-01-24T00:34:02.254Z,59
2019-01-24T00:34:51.414Z,59
2019-01-24T00:35:42.337Z,59
2019-01-24T00:36:32.123Z,58.9
2019-01-24T00:37:21.875Z,58.9
2019-01-24T00:38:12.227Z,58.9
2019-01-24T00:39:02.542Z,58.9
2019-01-24T00:39:52.599Z,58.8
2019-01-24T00:40:42.092Z,58.8
2019-01-24T00:41:32.417Z,58.8
2019-01-24T00:42:22.819Z,58.8
2019-01-24T00:43:12.279Z,58.8
2019-01-24T00:44:02.599Z,58.7
2019-01-24T00:44:52.945Z,58.7
2019-01-24T00:45:42.716Z,58.6
2019-01-24T00:46:32.771Z,58.6
2019-01-24T00:47:22.619Z,58.6
2019-01-24T00:49:52.989Z,58.5
2019-01-24T00:50:42.591Z,58.5
2019-01-24T00:51:32.916Z,58.4
2019-01-24T00:52:22.686Z,58.4
2019-01-24T00:53:13.026Z,58.4
2019-01-24T00:54:02.849Z,58.4
2019-01-24T00:54:53.129Z,58.4
2019-01-24T00:55:42.969Z,58.3
2019-01-24T00:56:32.431Z,58.3
2019-01-24T00:57:23.030Z,58.3
2019-01-24T00:58:13.095Z,58.3
2019-01-24T00:59:02.919Z,58.3
2019-01-24T00:59:53.531Z,58.3
2019-01-24T01:00:43.551Z,58.2
2019-01-24T01:01:33.593Z,58.2
2019-01-24T01:02:23.661Z,58.1
2019-01-24T01:03:13.715Z,58.1
2019-01-24T01:04:03.770Z,58.1
2019-01-24T01:04:53.831Z,58.1
2019-01-24T01:05:43.608Z,58.1
2019-01-24T01:06:33.936Z,58
2019-01-24T01:07:24.010Z,58
2019-01-24T01:08:14.573Z,57.9
2019-01-24T01:09:04.611Z,57.9
2019-01-24T01:09:54.173Z,57.9
2019-01-24T01:10:44.442Z,57.9
2019-01-24T01:11:34.294Z,57.9
2019-01-24T01:12:24.835Z,57.8
2019-01-24T01:13:14.330Z,57.8
2019-01-24T01:14:04.669Z,57.8
2019-01-24T01:17:24.900Z,57.7
2019-01-24T01:18:14.987Z,57.7
2019-01-24T01:19:05.017Z,57.6
2019-01-24T01:19:55.347Z,57.6
2019-01-24T01:20:45.114Z,57.6
2019-01-24T01:21:35.189Z,57.6
2019-01-24T01:22:25.234Z,57.6
2019-01-24T01:23:15.029Z,57.6
2019-01-24T01:24:05.638Z,57.5
2019-01-24T01:24:55.444Z,57.5
2019-01-24T01:25:45.752Z,57.4
2019-01-24T01:26:35.289Z,57.4
2019-01-24T01:27:25.862Z,57.4
2019-01-24T01:28:15.152Z,57.4
2019-01-24T01:29:05.978Z,57.4
2019-01-24T01:29:56.030Z,57.3
2019-01-24T01:30:45.803Z,57.3
2019-01-24T01:31:35.861Z,57.3
2019-01-24T01:32:25.923Z,57.3
2019-01-24T01:33:16.263Z,57.3
2019-01-24T01:34:05.489Z,57.3
2019-01-24T01:34:56.108Z,57.2
2019-01-24T01:35:46.428Z,57.2
2019-01-24T01:36:36.214Z,57.2
2019-01-24T01:37:26.266Z,57.1
2019-01-24T01:38:17.973Z,57.1
2019-01-24T01:39:06.650Z,57.1
2019-01-24T01:39:56.438Z,57.1
2019-01-24T01:40:46.813Z,57.1
2019-01-24T01:41:36.288Z,57
2019-01-24T01:42:26.323Z,57
2019-01-24T01:43:16.683Z,56.9
2019-01-24T01:44:07.006Z,56.9
2019-01-24T01:44:56.243Z,56.9
2019-01-24T01:45:47.150Z,56.9
2019-01-24T01:46:36.898Z,56.9
2019-01-24T01:47:26.956Z,56.9
2019-01-24T01:48:17.295Z,56.9
2019-01-24T01:49:06.800Z,56.8
2019-01-24T01:49:57.405Z,56.8
2019-01-24T01:50:47.520Z,56.8
2019-01-24T01:51:36.975Z,56.8
2019-01-24T01:52:27.582Z,56.8
2019-01-24T01:53:17.660Z,56.7
2019-01-24T01:54:07.155Z,56.7
2019-01-24T01:54:57.486Z,56.7
2019-01-24T01:55:47.582Z,56.6
2019-01-24T01:56:37.913Z,56.6
2019-01-24T01:57:27.642Z,56.6
2019-01-24T01:58:17.982Z,56.6
2019-01-24T01:59:07.754Z,56.6
2019-01-24T01:59:57.549Z,56.6
2019-01-24T02:00:48.159Z,56.5
2019-01-24T02:01:38.249Z,56.5
2019-01-24T02:02:28.272Z,56.4
2019-01-24T02:03:18.324Z,56.4
2019-01-24T02:04:08.389Z,56.4
2019-01-24T02:04:58.439Z,56.4
2019-01-24T02:05:48.237Z,56.4
2019-01-24T02:06:38.653Z,56.4
2019-01-24T02:07:28.344Z,56.3
2019-01-24T02:08:18.124Z,56.3
2019-01-24T02:09:08.456Z,56.3
2019-01-24T02:09:58.519Z,56.3
2019-01-24T02:10:48.856Z,56.3
2019-01-24T02:11:38.706Z,56.3
2019-01-24T02:12:28.961Z,56.2
2019-01-24T02:13:19.024Z,56.2
2019-01-24T02:14:08.559Z,56.2
2019-01-24T02:14:59.141Z,56.2
2019-01-24T02:15:49.193Z,56.1
2019-01-24T02:16:39.282Z,56.1
2019-01-24T02:17:29.036Z,56.1
2019-01-24T02:18:19.365Z,56.1
2019-01-24T02:19:09.193Z,56.1
2019-01-24T02:19:59.210Z,56
2019-01-24T02:20:49.543Z,56
2019-01-24T02:21:39.328Z,56
2019-01-24T02:22:29.655Z,56
2019-01-24T02:23:19.170Z,55.9
2019-01-24T02:24:09.775Z,55.9
2019-01-24T02:24:59.826Z,55.9
2019-01-24T02:25:49.882Z,55.9
2019-01-24T02:26:39.942Z,55.9
2019-01-24T02:27:29.738Z,55.8
2019-01-24T02:28:20.056Z,55.8
2019-01-24T02:29:09.837Z,55.8
2019-01-24T02:30:00.281Z,55.8
2019-01-24T02:30:50.237Z,55.8
2019-01-24T02:31:40.025Z,55.8
2019-01-24T02:32:30.086Z,55.7
2019-01-24T02:33:19.848Z,55.7
2019-01-24T02:34:09.914Z,55.7
2019-01-24T02:35:00.569Z,55.7
2019-01-24T02:35:50.342Z,55.6
2019-01-24T02:36:40.384Z,55.6
2019-01-24T02:37:30.407Z,55.6
2019-01-24T02:38:20.467Z,55.6
2019-01-24T02:39:10.853Z,55.6
2019-01-24T02:40:00.872Z,55.5
2019-01-24T02:40:50.382Z,55.5
2019-01-24T02:41:40.982Z,55.5
2019-01-24T02:42:30.499Z,55.5
2019-01-24T02:43:20.579Z,55.4
2019-01-24T02:44:11.162Z,55.4
2019-01-24T02:45:01.090Z,55.4
2019-01-24T02:45:51.315Z,55.4
2019-01-24T02:46:40.801Z,55.4
2019-01-24T02:47:31.384Z,55.4
2019-01-24T02:48:21.456Z,55.3
2019-01-24T02:49:11.288Z,55.3
2019-01-24T02:50:01.479Z,55.3
2019-01-24T02:50:51.378Z,55.3
2019-01-24T02:51:41.409Z,55.3
2019-01-24T02:52:30.903Z,55.3
2019-01-24T02:53:21.240Z,55.2
2019-01-24T02:54:11.324Z,55.2
2019-01-24T02:55:01.764Z,55.1
2019-01-24T02:55:51.666Z,55
2019-01-24T02:56:41.733Z,54.8
2019-01-24T02:57:32.076Z,54.6
2019-01-24T02:58:22.131Z,54.3
2019-01-24T02:59:12.188Z,54.1
2019-01-24T03:00:02.316Z,53.8
2019-01-24T03:00:51.760Z,53.7
2019-01-24T03:01:42.072Z,53.6
2019-01-24T03:02:32.698Z,53.6
2019-01-24T03:03:22.508Z,53.6
2019-01-24T03:04:12.537Z,53.6
2019-01-24T03:05:02.325Z,53.8
2019-01-24T03:08:35.072Z,54.3
2019-01-24T03:09:25.123Z,54.5
2019-01-24T03:10:15.149Z,54.7
2019-01-24T03:11:05.492Z,54.9
2019-01-24T03:11:55.527Z,55.1
2019-01-24T03:12:45.597Z,55.3
2019-01-24T03:13:35.363Z,55.5
2019-01-24T03:14:25.765Z,55.8
2019-01-24T03:15:15.240Z,55.9
2019-01-24T03:16:05.282Z,56.2
2019-01-24T03:16:55.897Z,56.4
2019-01-24T03:17:45.947Z,56.6
2019-01-24T03:18:35.739Z,56.9
2019-01-24T03:19:25.834Z,57.1
2019-01-24T03:20:15.580Z,57.3
2019-01-24T03:21:06.196Z,57.6
2019-01-24T03:21:56.227Z,57.8
2019-01-24T03:22:46.017Z,58
2019-01-24T03:23:36.347Z,58.2
2019-01-24T03:24:26.405Z,58.5
2019-01-24T03:25:15.911Z,58.7
2019-01-24T03:26:06.519Z,58.9
2019-01-24T03:26:56.306Z,59.2
2019-01-24T03:27:46.664Z,59.4
2019-01-24T03:28:36.409Z,59.6
2019-01-24T03:29:26.468Z,59.9
2019-01-24T03:30:16.901Z,60.1
2019-01-24T03:31:06.372Z,60.3
2019-01-24T03:31:57.011Z,60.6
2019-01-24T03:32:46.823Z,60.7
2019-01-24T03:33:36.853Z,60.8
2019-01-24T03:34:27.126Z,60.9
2019-01-24T03:35:17.218Z,61.1
2019-01-24T03:36:07.208Z,61.3
2019-01-24T03:36:56.983Z,61.4
2019-01-24T03:37:46.771Z,61.5
2019-01-24T03:38:36.836Z,61.8
2019-01-24T03:39:27.462Z,61.9
2019-01-24T03:40:16.999Z,62
2019-01-24T03:41:07.608Z,62.1
2019-01-24T03:41:57.605Z,62.3
2019-01-24T03:42:47.673Z,62.4
2019-01-24T03:43:37.715Z,62.5
2019-01-24T03:44:27.517Z,62.5
2019-01-24T03:45:17.867Z,62.6
2019-01-24T03:46:07.895Z,62.6
2019-01-24T03:46:57.987Z,62.6
2019-01-24T03:47:48.040Z,62.7
2019-01-24T03:48:38.061Z,62.7
2019-01-24T03:49:27.567Z,62.8
2019-01-24T03:50:18.187Z,62.8
2019-01-24T03:51:08.013Z,62.8
2019-01-24T03:51:58.287Z,62.7
2019-01-24T03:52:48.375Z,62.8
2019-01-24T03:53:38.432Z,62.8
2019-01-24T03:54:28.528Z,62.7
2019-01-24T03:55:17.979Z,62.7
2019-01-24T03:56:08.281Z,62.8
2019-01-24T03:56:58.366Z,62.7
2019-01-24T03:57:48.464Z,62.7
2019-01-24T03:58:38.743Z,62.7
2019-01-24T03:59:28.858Z,62.7
2019-01-24T04:00:18.609Z,62.7
2019-01-24T04:01:08.983Z,62.7
2019-01-24T04:01:58.981Z,62.7
2019-01-24T04:02:48.493Z,62.6
2019-01-24T04:03:39.099Z,62.6
2019-01-24T04:04:28.900Z,62.6
2019-01-24T04:05:19.226Z,62.6
2019-01-24T04:06:08.978Z,62.6
2019-01-24T04:06:59.129Z,62.6
2019-01-24T04:07:49.159Z,62.6
2019-01-24T04:08:38.911Z,62.6
2019-01-24T04:09:29.234Z,62.6
2019-01-24T04:10:19.577Z,62.6
2019-01-24T04:11:09.048Z,62.6
2019-01-24T04:11:59.688Z,62.6
2019-01-24T04:12:49.723Z,62.5
2019-01-24T04:13:39.235Z,62.6
2019-01-24T04:14:29.558Z,62.5
2019-01-24T04:15:19.963Z,62.5
2019-01-24T04:16:10.001Z,62.5
2019-01-24T04:17:00.025Z,62.5
2019-01-24T04:17:50.110Z,62.5
2019-01-24T04:18:39.588Z,62.5
2019-01-24T04:19:29.991Z,62.4
2019-01-24T04:20:20.000Z,62.4
2019-01-24T04:21:10.298Z,62.4
2019-01-24T04:22:00.108Z,62.4
2019-01-24T04:22:50.444Z,62.4
2019-01-24T04:23:40.198Z,62.4
2019-01-24T04:24:30.518Z,62.4
2019-01-24T04:25:20.866Z,62.4
2019-01-24T04:26:10.097Z,62.4
2019-01-24T04:27:00.439Z,62.4
2019-01-24T04:27:50.807Z,62.3
2019-01-24T04:28:40.295Z,62.4
2019-01-24T04:29:30.622Z,62.3
2019-01-24T04:30:20.645Z,62.3
2019-01-24T04:31:10.978Z,62.3
2019-01-24T04:32:01.060Z,62.3
2019-01-24T04:32:51.129Z,62.3
2019-01-24T04:33:40.882Z,62.3
2019-01-24T04:34:31.215Z,62.3
2019-01-24T04:35:24.087Z,62.3
2019-01-24T04:36:11.347Z,62.3
2019-01-24T04:37:00.913Z,62.3
2019-01-24T04:37:51.214Z,62.3
2019-01-24T04:38:41.514Z,62.3
2019-01-24T04:39:31.577Z,62.3
2019-01-24T04:40:21.356Z,62.3
2019-01-24T04:41:11.137Z,62.2
2019-01-24T04:42:01.739Z,62.2
2019-01-24T04:42:51.826Z,62.2
2019-01-24T04:43:41.596Z,62.2
2019-01-24T04:44:31.626Z,62.2
2019-01-24T04:45:21.993Z,62.2
2019-01-24T04:46:11.478Z,62.2
2019-01-24T04:47:02.083Z,62.1
2019-01-24T04:47:51.174Z,62.1
2019-01-24T04:48:41.949Z,62.1
2019-01-24T04:49:31.227Z,62.1
2019-01-24T04:50:21.387Z,62.1
2019-01-24T04:51:11.632Z,62.1
2019-01-24T04:52:01.696Z,62.1
2019-01-24T04:52:51.478Z,62.1
2019-01-24T04:53:42.070Z,62.1
2019-01-24T04:54:31.845Z,62.1
2019-01-24T04:55:21.435Z,62.1
2019-01-24T04:56:12.329Z,62.1
2019-01-24T04:57:02.009Z,62.1
2019-01-24T04:57:52.555Z,62.1
2019-01-24T04:58:42.433Z,62
2019-01-24T04:59:32.312Z,62.1
2019-01-24T05:00:22.242Z,62
2019-01-24T05:01:11.791Z,62
2019-01-24T05:02:02.360Z,62
2019-01-24T05:02:52.445Z,62
2019-01-24T05:03:42.460Z,62
2019-01-24T05:04:32.278Z,62
2019-01-24T05:05:30.703Z,61.9
2019-01-24T05:06:13.044Z,62
2019-01-24T05:07:03.083Z,61.9
2019-01-24T05:07:52.805Z,61.9
2019-01-24T05:08:42.889Z,61.9
2019-01-24T05:09:32.890Z,61.9
2019-01-24T05:10:23.324Z,61.9
2019-01-24T05:11:13.009Z,61.9
2019-01-24T05:12:03.058Z,61.9
2019-01-24T05:12:53.910Z,61.9
2019-01-24T05:13:43.432Z,61.9
2019-01-24T05:14:33.974Z,61.9
2019-01-24T05:15:23.784Z,61.9
2019-01-24T05:16:13.832Z,61.9
2019-01-24T05:17:03.315Z,61.8
2019-01-24T05:17:54.253Z,61.8
2019-01-24T05:18:43.984Z,61.8
2019-01-24T05:19:33.766Z,61.8
2019-01-24T05:20:24.152Z,61.8
2019-01-24T05:21:14.170Z,61.8
2019-01-24T05:22:04.497Z,61.8
2019-01-24T05:22:54.318Z,61.8
2019-01-24T05:23:44.666Z,61.8
2019-01-24T05:24:34.659Z,61.8
2019-01-24T05:25:24.737Z,61.8
2019-01-24T05:26:14.527Z,61.8
2019-01-24T05:27:04.287Z,61.8
2019-01-24T05:27:54.695Z,61.8
2019-01-24T05:28:44.683Z,61.7
2019-01-24T05:29:34.451Z,61.8
2019-01-24T05:30:24.830Z,61.7
2019-01-24T05:31:14.841Z,61.7
2019-01-24T05:32:05.189Z,61.7
2019-01-24T05:32:56.860Z,61.7
2019-01-24T05:33:45.310Z,61.7
2019-01-24T05:34:35.375Z,61.7
2019-01-24T05:35:25.153Z,61.7
2019-01-24T05:36:15.491Z,61.6
2019-01-24T05:37:04.987Z,61.6
2019-01-24T05:37:55.622Z,61.6
2019-01-24T05:38:45.649Z,61.6
2019-01-24T05:39:35.696Z,61.6
2019-01-24T05:40:25.489Z,61.6
2019-01-24T05:41:15.839Z,61.6
2019-01-24T05:42:05.633Z,61.6
2019-01-24T05:42:56.018Z,61.6
2019-01-24T05:43:46.024Z,61.6
2019-01-24T05:44:36.031Z,61.6
2019-01-24T05:45:26.119Z,61.6
2019-01-24T05:46:15.886Z,61.6
2019-01-24T05:47:06.251Z,61.5
2019-01-24T05:47:56.278Z,61.6
2019-01-24T05:48:45.754Z,61.5
2019-01-24T05:49:36.090Z,61.5
2019-01-24T05:50:27.684Z,61.5
2019-01-24T05:51:16.488Z,61.5
2019-01-24T05:52:06.564Z,61.5
2019-01-24T05:52:56.335Z,61.4
2019-01-24T05:53:46.718Z,61.5
2019-01-24T05:54:36.460Z,61.4
2019-01-24T05:55:26.501Z,61.4
2019-01-24T05:56:16.555Z,61.4
2019-01-24T05:57:06.620Z,61.4
2019-01-24T05:57:56.943Z,61.4
2019-01-24T05:58:47.007Z,61.4
2019-01-24T05:59:37.066Z,61.4
2019-01-24T06:00:26.845Z,61.4
2019-01-24T06:01:17.185Z,61.4
2019-01-24T06:02:07.237Z,61.4
2019-01-24T06:02:57.279Z,61.4
2019-01-24T06:03:47.342Z,61.4
2019-01-24T06:04:37.415Z,61.4
2019-01-24T06:06:35.159Z,61.3
2019-01-24T06:07:26.427Z,61.3
2019-01-24T06:08:15.008Z,61.3
2019-01-24T06:09:05.324Z,61.3
2019-01-24T06:09:55.379Z,61.3
2019-01-24T06:10:45.175Z,61.3
2019-01-24T06:11:35.207Z,61.3
2019-01-24T06:12:25.543Z,61.3
2019-01-24T06:13:15.368Z,61.3
2019-01-24T06:14:05.652Z,61.3
2019-01-24T06:14:55.482Z,61.3
2019-01-24T06:15:45.494Z,61.3
2019-01-24T06:16:35.556Z,61.3
2019-01-24T06:17:25.607Z,61.3
2019-01-24T06:18:15.676Z,61.2
2019-01-24T06:19:06.027Z,61.2
2019-01-24T06:19:56.092Z,61.2
2019-01-24T06:20:45.592Z,61.2
2019-01-24T06:21:36.187Z,61.2
2019-01-24T06:22:26.252Z,61.2
2019-01-24T06:23:16.159Z,61.2
2019-01-24T06:24:06.074Z,61.2
2019-01-24T06:24:56.401Z,61.1
2019-01-24T06:25:46.208Z,61.1
2019-01-24T06:26:36.521Z,61.1
2019-01-24T06:27:26.576Z,61.1
2019-01-24T06:28:16.384Z,61.1
2019-01-24T06:29:06.979Z,61.1
2019-01-24T06:29:56.756Z,61.1
2019-01-24T06:30:46.793Z,61.1
2019-01-24T06:31:36.578Z,61.1
2019-01-24T06:32:26.940Z,61.1
2019-01-24T06:33:16.699Z,61.1
2019-01-24T06:34:07.061Z,61.1
2019-01-24T06:34:56.829Z,61.1
2019-01-24T06:35:52.685Z,61
2019-01-24T06:36:37.224Z,61
2019-01-24T06:37:27.001Z,61
2019-01-24T06:38:17.030Z,61
2019-01-24T06:39:07.368Z,61
2019-01-24T06:39:57.180Z,61
2019-01-24T06:40:47.198Z,61
2019-01-24T06:41:36.995Z,61
2019-01-24T06:42:27.318Z,60.9
2019-01-24T06:43:17.387Z,60.9
2019-01-24T06:44:07.705Z,60.9
2019-01-24T06:44:57.762Z,60.9
2019-01-24T06:45:47.837Z,60.9
2019-01-24T06:46:37.359Z,60.9
2019-01-24T06:47:27.672Z,60.9
2019-01-24T06:48:17.436Z,60.9
2019-01-24T06:49:08.052Z,60.9
2019-01-24T06:49:57.892Z,60.9
2019-01-24T06:50:48.173Z,60.9
2019-01-24T06:51:38.230Z,60.9
2019-01-24T06:52:28.271Z,60.8
2019-01-24T06:53:17.779Z,60.8
2019-01-24T06:54:08.104Z,60.8
2019-01-24T06:54:58.437Z,60.8
2019-01-24T06:55:48.225Z,60.8
2019-01-24T06:56:38.009Z,60.8
2019-01-24T06:57:28.670Z,60.8
2019-01-24T06:58:18.684Z,60.8
2019-01-24T06:59:08.469Z,60.8
2019-01-24T06:59:58.514Z,60.8
2019-01-24T07:00:48.574Z,60.8
2019-01-24T07:01:38.634Z,60.8
2019-01-24T07:02:28.409Z,60.8
2019-01-24T07:03:19.028Z,60.8
2019-01-24T07:04:08.804Z,60.7
2019-01-24T07:06:35.064Z,60.7
2019-01-24T07:07:24.290Z,60.7
2019-01-24T07:08:15.186Z,60.7
2019-01-24T07:09:05.241Z,60.7
2019-01-24T07:09:55.036Z,60.7
2019-01-24T07:10:45.088Z,60.6
2019-01-24T07:11:34.851Z,60.6
2019-01-24T07:12:25.485Z,60.6
2019-01-24T07:13:15.531Z,60.6
2019-01-24T07:14:05.582Z,60.6
2019-01-24T07:14:55.370Z,60.6
2019-01-24T07:15:45.428Z,60.6
2019-01-24T07:16:35.238Z,60.6
2019-01-24T07:17:25.318Z,60.6
2019-01-24T07:18:15.860Z,60.6
2019-01-24T07:19:05.378Z,60.6
2019-01-24T07:19:55.730Z,60.6
2019-01-24T07:20:45.768Z,60.6
2019-01-24T07:21:35.813Z,60.6
2019-01-24T07:22:26.153Z,60.5
2019-01-24T07:23:15.922Z,60.5
2019-01-24T07:24:06.038Z,60.5
2019-01-24T07:24:56.341Z,60.5
2019-01-24T07:25:46.109Z,60.5
2019-01-24T07:26:36.163Z,60.5
2019-01-24T07:27:26.222Z,60.5
2019-01-24T07:28:16.022Z,60.4
2019-01-24T07:29:06.062Z,60.4
2019-01-24T07:29:56.392Z,60.4
2019-01-24T07:30:46.230Z,60.4
2019-01-24T07:31:36.527Z,60.4
2019-01-24T07:32:26.570Z,60.4
2019-01-24T07:33:16.627Z,60.4
2019-01-24T07:34:06.958Z,60.4
2019-01-24T07:34:56.459Z,60.4
2019-01-24T07:35:46.532Z,60.4
2019-01-24T07:36:36.859Z,60.4
2019-01-24T07:37:27.240Z,60.4
2019-01-24T07:38:16.965Z,60.3
2019-01-24T07:39:07.301Z,60.3
2019-01-24T07:39:57.349Z,60.3
2019-01-24T07:40:46.864Z,60.3
2019-01-24T07:41:37.191Z,60.3
2019-01-24T07:42:26.429Z,60.3
2019-01-24T07:43:18.391Z,60.3
2019-01-24T07:44:07.669Z,60.3
2019-01-24T07:44:57.152Z,60.3
2019-01-24T07:45:47.767Z,60.3
2019-01-24T07:46:37.556Z,60.3
2019-01-24T07:47:27.311Z,60.3
2019-01-24T07:48:17.657Z,60.3
2019-01-24T07:49:07.711Z,60.3
2019-01-24T07:49:57.496Z,60.3
2019-01-24T07:50:48.105Z,60.2
2019-01-24T07:51:37.593Z,60.2
2019-01-24T07:52:28.225Z,60.2
2019-01-24T07:53:18.007Z,60.2
2019-01-24T07:54:07.502Z,60.2
2019-01-24T07:54:58.403Z,60.2
2019-01-24T07:55:48.446Z,60.1
2019-01-24T07:56:38.253Z,60.1
2019-01-24T07:57:27.736Z,60.1
2019-01-24T07:58:18.449Z,60.1
2019-01-24T07:59:08.674Z,60.1
2019-01-24T07:59:58.740Z,60.1
2019-01-24T08:00:48.236Z,60.1
2019-01-24T08:01:38.570Z,60.1
2019-01-24T08:02:28.340Z,60.1
2019-01-24T08:03:18.148Z,60.1
2019-01-24T08:04:09.058Z,60.1
2019-01-24T08:04:59.076Z,60.1
2019-01-24T08:05:49.145Z,60.1
2019-01-24T08:06:38.637Z,60
2019-01-24T08:07:28.982Z,60
2019-01-24T08:08:18.480Z,60
2019-01-24T08:09:09.372Z,60
2019-01-24T08:09:59.470Z,60
2019-01-24T08:10:49.199Z,60
2019-01-24T08:11:38.987Z,60
2019-01-24T08:12:29.315Z,59.9
2019-01-24T08:13:19.370Z,59.9
2019-01-24T08:14:09.704Z,59.9
2019-01-24T08:14:59.773Z,59.9
2019-01-24T08:15:49.558Z,59.9
2019-01-24T08:16:39.929Z,59.9
2019-01-24T08:17:29.647Z,59.9
2019-01-24T08:18:19.740Z,59.9
2019-01-24T08:19:09.504Z,59.9
2019-01-24T08:19:59.552Z,59.9
2019-01-24T08:20:49.902Z,59.9
2019-01-24T08:21:39.939Z,59.9
2019-01-24T08:22:30.307Z,59.8
2019-01-24T08:23:20.348Z,59.8
2019-01-24T08:24:10.124Z,59.8
2019-01-24T08:25:00.234Z,59.8
2019-01-24T08:25:50.506Z,59.8
2019-01-24T08:26:40.569Z,59.8
2019-01-24T08:27:32.082Z,59.8
2019-01-24T08:28:20.414Z,59.8
2019-01-24T08:29:10.251Z,59.8
2019-01-24T08:30:00.260Z,59.8
2019-01-24T08:30:50.579Z,59.8
2019-01-24T08:31:40.357Z,59.8
2019-01-24T08:32:30.691Z,59.7
2019-01-24T08:33:21.031Z,59.7
2019-01-24T08:34:10.811Z,59.7
2019-01-24T08:35:01.150Z,59.7
2019-01-24T08:35:50.918Z,59.7
2019-01-24T08:36:41.255Z,59.7
2019-01-24T08:37:31.038Z,59.7
2019-01-24T08:38:20.820Z,59.6
2019-01-24T08:39:11.143Z,59.6
2019-01-24T08:40:00.665Z,59.6
2019-01-24T08:40:50.990Z,59.6
2019-01-24T08:41:41.325Z,59.6
2019-01-24T08:42:31.110Z,59.6
2019-01-24T08:43:21.162Z,59.6
2019-01-24T08:44:11.260Z,59.6
2019-01-24T08:45:01.568Z,59.6
2019-01-24T08:45:51.326Z,59.6
2019-01-24T08:46:41.407Z,59.6
2019-01-24T08:47:31.442Z,59.6
2019-01-24T08:48:21.788Z,59.5
2019-01-24T08:49:11.838Z,59.5
2019-01-24T08:50:01.920Z,59.5
2019-01-24T08:50:51.952Z,59.5
2019-01-24T08:51:42.047Z,59.5
2019-01-24T08:52:32.122Z,59.5
2019-01-24T08:53:22.463Z,59.5
2019-01-24T08:54:12.489Z,59.4
2019-01-24T08:55:02.030Z,59.5
2019-01-24T08:55:52.299Z,59.4
2019-01-24T08:56:42.354Z,59.4
2019-01-24T08:57:32.425Z,59.4
2019-01-24T08:58:22.482Z,59.4
2019-01-24T08:59:12.232Z,59.4
2019-01-24T09:00:02.479Z,59.4
2019-01-24T09:00:52.387Z,59.4
2019-01-24T09:01:42.703Z,59.4
2019-01-24T09:02:32.782Z,59.4
2019-01-24T09:03:23.080Z,59.4
2019-01-24T09:04:13.144Z,59.4
2019-01-24T09:05:02.931Z,59.4
2019-01-24T09:05:52.984Z,59.3
2019-01-24T09:06:42.549Z,59.3
2019-01-24T09:07:33.121Z,59.3
2019-01-24T09:08:22.881Z,59.3
2019-01-24T09:09:13.485Z,59.3
2019-01-24T09:10:03.396Z,59.3
2019-01-24T09:10:53.334Z,59.3
2019-01-24T09:11:43.386Z,59.3
2019-01-24T09:12:34.118Z,59.3
2019-01-24T09:13:23.492Z,59.3
2019-01-24T09:14:13.549Z,59.3
2019-01-24T09:15:03.560Z,59.3
2019-01-24T09:15:53.373Z,59.2
2019-01-24T09:16:43.718Z,59.3
2019-01-24T09:17:34.064Z,59.2
2019-01-24T09:18:24.129Z,59.2
2019-01-24T09:19:13.896Z,59.2
2019-01-24T09:20:03.787Z,59.1
2019-01-24T09:20:54.276Z,59.1
2019-01-24T09:21:44.358Z,59.1
2019-01-24T09:22:34.128Z,59.1
2019-01-24T09:23:24.458Z,59.1
2019-01-24T09:24:14.520Z,59.1
2019-01-24T09:25:04.602Z,59.1
2019-01-24T09:25:54.105Z,59.1
2019-01-24T09:26:44.405Z,59.1
2019-01-24T09:27:34.948Z,59.1
2019-01-24T09:28:24.505Z,59.1
2019-01-24T09:29:14.583Z,59.1
2019-01-24T09:30:04.182Z,59.1
2019-01-24T09:30:54.430Z,59
2019-01-24T09:31:44.469Z,59
2019-01-24T09:32:34.813Z,59
2019-01-24T09:33:24.635Z,59
2019-01-24T09:34:14.642Z,59
2019-01-24T09:35:05.039Z,59
2019-01-24T09:35:55.039Z,59
2019-01-24T09:36:45.144Z,59
2019-01-24T09:37:34.324Z,58.9
2019-01-24T09:38:25.489Z,58.9
2019-01-24T09:39:15.000Z,58.9
2019-01-24T09:40:05.327Z,58.9
2019-01-24T09:40:55.107Z,58.9
2019-01-24T09:41:45.761Z,58.9
2019-01-24T09:42:35.496Z,58.9
2019-01-24T09:43:24.786Z,58.9
2019-01-24T09:44:15.604Z,58.9
2019-01-24T09:45:05.124Z,58.9
2019-01-24T09:45:55.496Z,58.9
2019-01-24T09:46:46.059Z,58.9
2019-01-24T09:47:36.123Z,58.9
2019-01-24T09:48:25.151Z,58.9
2019-01-24T09:49:15.679Z,58.8
2019-01-24T09:50:06.001Z,58.8
2019-01-24T09:50:56.350Z,58.8
2019-01-24T09:51:45.638Z,58.8
2019-01-24T09:52:36.190Z,58.8
2019-01-24T09:53:26.516Z,58.8
2019-01-24T09:54:16.036Z,58.8
2019-01-24T09:55:06.999Z,58.8
2019-01-24T09:55:56.416Z,58.8
2019-01-24T09:56:46.473Z,58.8
2019-01-24T09:57:36.248Z,58.8
2019-01-24T09:58:26.593Z,58.7
2019-01-24T09:59:16.918Z,58.7
2019-01-24T10:00:06.703Z,58.7
2019-01-24T10:00:56.832Z,58.7
2019-01-24T10:01:46.545Z,58.7
2019-01-24T10:02:36.875Z,58.7
2019-01-24T10:03:26.936Z,58.6
2019-01-24T10:04:17.015Z,58.6
2019-01-24T10:05:07.330Z,58.6
2019-01-24T10:07:34.092Z,58.6
2019-01-24T10:08:24.734Z,58.6
2019-01-24T10:09:14.751Z,58.6
2019-01-24T10:13:25.077Z,58.5
2019-01-24T10:14:15.124Z,58.5
2019-01-24T10:15:04.605Z,58.5
2019-01-24T10:15:54.674Z,58.5
2019-01-24T10:16:45.595Z,58.5
2019-01-24T10:17:36.717Z,58.5
2019-01-24T10:18:25.439Z,58.5
2019-01-24T10:19:15.161Z,58.4
2019-01-24T10:20:05.782Z,58.4
2019-01-24T10:20:55.284Z,58.4
2019-01-24T10:21:45.891Z,58.4
2019-01-24T10:22:35.986Z,58.4
2019-01-24T10:23:25.979Z,58.4
2019-01-24T10:24:15.790Z,58.4
2019-01-24T10:25:05.744Z,58.4
2019-01-24T10:25:55.901Z,58.4
2019-01-24T10:26:46.276Z,58.4
2019-01-24T10:27:36.257Z,58.4
2019-01-24T10:28:26.341Z,58.3
2019-01-24T10:29:15.556Z,58.3
2019-01-24T10:30:06.461Z,58.3
2019-01-24T10:30:56.281Z,58.3
2019-01-24T10:31:47.961Z,58.3
2019-01-24T10:32:36.078Z,58.3
2019-01-24T10:33:26.403Z,58.3
2019-01-24T10:34:16.198Z,58.3
2019-01-24T10:35:06.004Z,58.3
2019-01-24T10:35:56.030Z,58.3
2019-01-24T10:36:46.883Z,58.3
2019-01-24T10:37:36.425Z,58.3
2019-01-24T10:38:26.746Z,58.3
2019-01-24T10:39:16.861Z,58.2
2019-01-24T10:40:06.393Z,58.2
2019-01-24T10:40:57.220Z,58.2
2019-01-24T10:41:46.785Z,58.2
2019-01-24T10:42:37.315Z,58.2
2019-01-24T10:43:27.099Z,58.2
2019-01-24T10:44:17.146Z,58.2
2019-01-24T10:45:07.217Z,58.1
2019-01-24T10:45:56.974Z,58.1
2019-01-24T10:46:47.042Z,58.1
2019-01-24T10:47:37.642Z,58.1
2019-01-24T10:48:27.712Z,58.1
2019-01-24T10:49:17.499Z,58.1
2019-01-24T10:50:07.292Z,58.1
2019-01-24T10:50:57.902Z,58.1
2019-01-24T10:51:47.117Z,58.1
2019-01-24T10:52:37.738Z,58.1
2019-01-24T10:53:27.790Z,58.1
2019-01-24T10:54:17.852Z,58.1
2019-01-24T10:55:14.051Z,58.1
2019-01-24T10:55:58.232Z,58
2019-01-24T10:56:47.474Z,58
2019-01-24T10:57:38.352Z,58
2019-01-24T10:58:28.426Z,58
2019-01-24T10:59:18.227Z,58
2019-01-24T11:00:08.264Z,58
2019-01-24T11:00:58.320Z,58
2019-01-24T11:01:48.353Z,58
2019-01-24T11:02:38.694Z,57.9
2019-01-24T11:03:28.201Z,57.9
2019-01-24T11:04:18.544Z,57.9
2019-01-24T11:05:08.869Z,57.9
2019-01-24T11:05:58.666Z,57.9
2019-01-24T11:06:53.346Z,57.9
2019-01-24T11:07:38.763Z,57.9
2019-01-24T11:08:28.543Z,57.9
2019-01-24T11:09:19.153Z,57.9
2019-01-24T11:10:10.194Z,57.9
2019-01-24T11:10:59.018Z,57.9
2019-01-24T11:11:49.323Z,57.8
2019-01-24T11:12:38.829Z,57.8
2019-01-24T11:13:28.943Z,57.8
2019-01-24T11:14:19.253Z,57.8
2019-01-24T11:15:08.723Z,57.8
2019-01-24T11:15:59.336Z,57.8
2019-01-24T11:21:50.008Z,57.7
2019-01-24T11:22:39.817Z,57.7
2019-01-24T11:23:30.130Z,57.7
2019-01-24T11:24:19.907Z,57.7
2019-01-24T11:25:10.022Z,57.7
2019-01-24T11:26:00.024Z,57.7
2019-01-24T11:26:50.398Z,57.7
2019-01-24T11:27:39.582Z,57.7
2019-01-24T11:28:30.920Z,57.6
2019-01-24T11:29:19.992Z,57.6